sensor_id;sensor_type;location;lat;lon;timestamp;pressure;altitude;pressure_sealevel;temperature;humidity
61113;BME280;47184;57.998;56.184;2023-02-18T00:02:20;100539.47;;;-9.57;50.50
61113;BME280;47184;57.998;56.184;2023-02-18T00:04:46;100550.53;;;-9.57;50.57
61113;BME280;47184;57.998;56.184;2023-02-18T00:07:12;100543.75;;;-9.59;50.41
61113;BME280;47184;57.998;56.184;2023-02-18T00:09:38;100532.72;;;-9.63;50.93
61113;BME280;47184;57.998;56.184;2023-02-18T00:12:04;100529.28;;;-9.60;50.17
61113;BME280;47184;57.998;56.184;2023-02-18T00:14:30;100531.81;;;-9.59;50.60
61113;BME280;47184;57.998;56.184;2023-02-18T00:16:56;100534.41;;;-9.62;50.36
61113;BME280;47184;57.998;56.184;2023-02-18T00:19:21;100525.28;;;-9.80;50.74
61113;BME280;47184;57.998;56.184;2023-02-18T00:21:47;100521.06;;;-9.82;50.42
61113;BME280;47184;57.998;56.184;2023-02-18T00:24:15;100517.63;;;-9.81;50.97
61113;BME280;47184;57.998;56.184;2023-02-18T00:26:41;100522.84;;;-9.89;50.88
61113;BME280;47184;57.998;56.184;2023-02-18T00:29:07;100539.75;;;-9.79;50.77
61113;BME280;47184;57.998;56.184;2023-02-18T00:31:35;100532.91;;;-9.77;50.88
61113;BME280;47184;57.998;56.184;2023-02-18T00:34:03;100527.78;;;-9.75;50.64
61113;BME280;47184;57.998;56.184;2023-02-18T00:36:29;100532.03;;;-9.74;50.74
61113;BME280;47184;57.998;56.184;2023-02-18T00:38:58;100533.72;;;-9.76;50.58
61113;BME280;47184;57.998;56.184;2023-02-18T00:41:27;100525.28;;;-9.81;50.69
61113;BME280;47184;57.998;56.184;2023-02-18T00:43:53;100522.78;;;-9.84;50.57
61113;BME280;47184;57.998;56.184;2023-02-18T00:46:20;100515.22;;;-9.92;50.64
61113;BME280;47184;57.998;56.184;2023-02-18T00:48:46;100521.16;;;-9.90;50.95
61113;BME280;47184;57.998;56.184;2023-02-18T00:51:13;100512.72;;;-9.97;50.98
61113;BME280;47184;57.998;56.184;2023-02-18T00:53:39;100496.66;;;-10.06;50.33
61113;BME280;47184;57.998;56.184;2023-02-18T00:56:06;100502.63;;;-10.04;51.22
61113;BME280;47184;57.998;56.184;2023-02-18T00:58:33;100514.47;;;-9.99;50.45
61113;BME280;47184;57.998;56.184;2023-02-18T01:00:59;100503.53;;;-10.08;50.29
61113;BME280;47184;57.998;56.184;2023-02-18T01:03:25;100511.97;;;-10.05;50.85
61113;BME280;47184;57.998;56.184;2023-02-18T01:05:52;100509.38;;;-10.02;50.76
61113;BME280;47184;57.998;56.184;2023-02-18T01:08:19;100483.13;;;-10.13;50.59
61113;BME280;47184;57.998;56.184;2023-02-18T01:10:47;100497.50;;;-10.04;50.41
61113;BME280;47184;57.998;56.184;2023-02-18T01:13:15;100494.16;;;-10.08;50.93
61113;BME280;47184;57.998;56.184;2023-02-18T01:15:41;100496.69;;;-10.09;51.44
61113;BME280;47184;57.998;56.184;2023-02-18T01:18:10;100478.13;;;-10.20;50.71
61113;BME280;47184;57.998;56.184;2023-02-18T01:20:38;100495.06;;;-10.13;51.30
61113;BME280;47184;57.998;56.184;2023-02-18T01:23:04;100496.78;;;-10.17;51.20
61113;BME280;47184;57.998;56.184;2023-02-18T01:25:31;100495.13;;;-10.21;51.06
61113;BME280;47184;57.998;56.184;2023-02-18T01:27:57;100500.34;;;-10.26;51.37
61113;BME280;47184;57.998;56.184;2023-02-18T01:30:23;100494.31;;;-10.23;51.52
61113;BME280;47184;57.998;56.184;2023-02-18T01:32:50;100495.13;;;-10.19;51.26
61113;BME280;47184;57.998;56.184;2023-02-18T01:35:18;100490.03;;;-10.21;51.25
61113;BME280;47184;57.998;56.184;2023-02-18T01:37:46;100491.84;;;-10.26;51.39
61113;BME280;47184;57.998;56.184;2023-02-18T01:40:16;100494.41;;;-10.29;51.27
61113;BME280;47184;57.998;56.184;2023-02-18T01:42:44;100487.69;;;-10.35;52.25
61113;BME280;47184;57.998;56.184;2023-02-18T01:50:32;100481.81;;;-10.43;51.88
61113;BME280;47184;57.998;56.184;2023-02-18T01:53:01;100474.97;;;-10.39;52.57
61113;BME280;47184;57.998;56.184;2023-02-18T01:55:30;100476.69;;;-10.41;52.17
61113;BME280;47184;57.998;56.184;2023-02-18T01:57:56;100483.47;;;-10.39;52.34
61113;BME280;47184;57.998;56.184;2023-02-18T02:00:22;100470.72;;;-10.39;52.17
61113;BME280;47184;57.998;56.184;2023-02-18T02:02:50;100460.59;;;-10.46;52.18
61113;BME280;47184;57.998;56.184;2023-02-18T02:05:18;100480.97;;;-10.43;52.10
61113;BME280;47184;57.998;56.184;2023-02-18T02:07:47;100421.91;;;-10.84;52.30
61113;BME280;47184;57.998;56.184;2023-02-18T02:10:14;100486.03;;;-10.39;52.49
61113;BME280;47184;57.998;56.184;2023-02-18T02:13:28;100489.44;;;-10.38;52.03
61113;BME280;47184;57.998;56.184;2023-02-18T02:18:45;100481.78;;;-10.37;52.05
61113;BME280;47184;57.998;56.184;2023-02-18T02:21:38;100487.75;;;-10.39;52.17
61113;BME280;47184;57.998;56.184;2023-02-18T02:27:28;100480.94;;;-10.39;52.10
61113;BME280;47184;57.998;56.184;2023-02-18T02:32:46;100480.97;;;-10.43;52.18
61113;BME280;47184;57.998;56.184;2023-02-18T02:35:23;100470.00;;;-10.49;51.84
61113;BME280;47184;57.998;56.184;2023-02-18T02:38:02;100467.50;;;-10.53;52.25
61113;BME280;47184;57.998;56.184;2023-02-18T02:40:54;100471.72;;;-10.52;51.71
61113;BME280;47184;57.998;56.184;2023-02-18T02:49:06;100475.16;;;-10.58;52.14
61113;BME280;47184;57.998;56.184;2023-02-18T02:51:46;100472.63;;;-10.58;52.35
61113;BME280;47184;57.998;56.184;2023-02-18T02:54:25;100470.16;;;-10.64;52.64
61113;BME280;47184;57.998;56.184;2023-02-18T02:59:37;100464.31;;;-10.74;52.16
61113;BME280;47184;57.998;56.184;2023-02-18T03:11:02;100472.84;;;-10.76;52.81
61113;BME280;47184;57.998;56.184;2023-02-18T03:13:56;100478.81;;;-10.80;52.62
61113;BME280;47184;57.998;56.184;2023-02-18T03:16:50;100466.88;;;-10.78;52.55
61113;BME280;47184;57.998;56.184;2023-02-18T03:21:52;100454.13;;;-10.77;53.04
61113;BME280;47184;57.998;56.184;2023-02-18T03:24:46;100446.59;;;-10.86;52.71
61113;BME280;47184;57.998;56.184;2023-02-18T03:29:41;100429.53;;;-10.84;52.85
61113;BME280;47184;57.998;56.184;2023-02-18T03:32:09;100429.56;;;-10.85;53.16
61113;BME280;47184;57.998;56.184;2023-02-18T03:34:41;100446.47;;;-10.74;52.81
61113;BME280;47184;57.998;56.184;2023-02-18T03:37:09;100449.78;;;-10.68;53.21
61113;BME280;47184;57.998;56.184;2023-02-18T03:39:41;100455.72;;;-10.66;53.37
61113;BME280;47184;57.998;56.184;2023-02-18T03:42:09;100445.50;;;-10.66;53.30
61113;BME280;47184;57.998;56.184;2023-02-18T03:44:35;100445.47;;;-10.63;53.36
61113;BME280;47184;57.998;56.184;2023-02-18T03:47:01;100447.09;;;-10.58;53.18
61113;BME280;47184;57.998;56.184;2023-02-18T03:49:27;100453.91;;;-10.57;52.57
61113;BME280;47184;57.998;56.184;2023-02-18T03:51:53;100459.88;;;-10.59;53.34
61113;BME280;47184;57.998;56.184;2023-02-18T03:54:19;100453.09;;;-10.57;52.65
61113;BME280;47184;57.998;56.184;2023-02-18T03:56:45;100423.44;;;-10.69;52.56
61113;BME280;47184;57.998;56.184;2023-02-18T03:59:12;100459.78;;;-10.49;52.69
61113;BME280;47184;57.998;56.184;2023-02-18T04:01:39;100462.28;;;-10.44;52.56
61113;BME280;47184;57.998;56.184;2023-02-18T04:04:05;100463.00;;;-10.34;52.65
61113;BME280;47184;57.998;56.184;2023-02-18T04:06:31;100468.84;;;-10.25;52.84
61113;BME280;47184;57.998;56.184;2023-02-18T04:08:58;100467.94;;;-10.22;52.77
61113;BME280;47184;57.998;56.184;2023-02-18T04:11:24;100468.69;;;-10.14;52.62
61113;BME280;47184;57.998;56.184;2023-02-18T04:13:50;100466.06;;;-10.09;52.51
61113;BME280;47184;57.998;56.184;2023-02-18T04:16:16;100450.66;;;-10.05;52.42
61113;BME280;47184;57.998;56.184;2023-02-18T04:18:42;100456.31;;;-9.81;52.79
61113;BME280;47184;57.998;56.184;2023-02-18T04:21:08;100461.28;;;-9.70;52.45
61113;BME280;47184;57.998;56.184;2023-02-18T04:23:34;100457.78;;;-9.65;52.16
61113;BME280;47184;57.998;56.184;2023-02-18T04:26:00;100426.38;;;-9.73;52.61
61113;BME280;47184;57.998;56.184;2023-02-18T04:28:26;100467.75;;;-9.46;51.97
61113;BME280;47184;57.998;56.184;2023-02-18T04:30:52;100459.16;;;-9.44;51.48
61113;BME280;47184;57.998;56.184;2023-02-18T04:33:18;100465.00;;;-9.34;51.50
61113;BME280;47184;57.998;56.184;2023-02-18T04:35:44;100462.38;;;-9.30;51.49
61113;BME280;47184;57.998;56.184;2023-02-18T04:38:10;100469.03;;;-9.21;52.39
61113;BME280;47184;57.998;56.184;2023-02-18T04:40:36;100462.13;;;-9.14;51.76
61113;BME280;47184;57.998;56.184;2023-02-18T04:43:03;100466.09;;;-9.00;51.67
61113;BME280;47184;57.998;56.184;2023-02-18T04:45:29;100458.25;;;-8.89;52.36
61113;BME280;47184;57.998;56.184;2023-02-18T04:47:55;100461.53;;;-8.82;51.51
61113;BME280;47184;57.998;56.184;2023-02-18T04:50:21;100445.31;;;-8.81;51.77
61113;BME280;47184;57.998;56.184;2023-02-18T04:52:48;100458.50;;;-8.58;51.66
61113;BME280;47184;57.998;56.184;2023-02-18T04:55:14;100459.16;;;-8.45;51.53
61113;BME280;47184;57.998;56.184;2023-02-18T04:57:40;100453.66;;;-8.30;51.19
61113;BME280;47184;57.998;56.184;2023-02-18T05:00:08;100444.00;;;-8.15;51.14
61113;BME280;47184;57.998;56.184;2023-02-18T05:02:34;100442.97;;;-8.07;51.17
61113;BME280;47184;57.998;56.184;2023-02-18T05:05:00;100446.13;;;-7.95;51.42
61113;BME280;47184;57.998;56.184;2023-02-18T05:07:26;100431.28;;;-7.81;51.14
61113;BME280;47184;57.998;56.184;2023-02-18T05:09:52;100417.84;;;-7.91;51.07
61113;BME280;47184;57.998;56.184;2023-02-18T05:12:18;100407.09;;;-8.07;51.29
61113;BME280;47184;57.998;56.184;2023-02-18T05:14:44;100422.25;;;-7.98;50.97
61113;BME280;47184;57.998;56.184;2023-02-18T05:17:10;100429.50;;;-7.78;50.73
61113;BME280;47184;57.998;56.184;2023-02-18T05:19:36;100425.59;;;-7.57;50.74
61113;BME280;47184;57.998;56.184;2023-02-18T05:22:02;100412.41;;;-7.41;51.14
61113;BME280;47184;57.998;56.184;2023-02-18T05:24:28;100418.44;;;-7.42;50.09
61113;BME280;47184;57.998;56.184;2023-02-18T05:26:54;100415.28;;;-7.19;50.15
61113;BME280;47184;57.998;56.184;2023-02-18T05:29:20;100429.50;;;-7.06;49.90
61113;BME280;47184;57.998;56.184;2023-02-18T05:31:46;100426.13;;;-6.76;50.12
61113;BME280;47184;57.998;56.184;2023-02-18T05:34:12;100407.22;;;-6.73;49.96
61113;BME280;47184;57.998;56.184;2023-02-18T05:36:38;100419.25;;;-6.44;49.60
61113;BME280;47184;57.998;56.184;2023-02-18T05:39:04;100408.28;;;-6.19;49.51
61113;BME280;47184;57.998;56.184;2023-02-18T05:41:30;100406.38;;;-5.86;48.88
61113;BME280;47184;57.998;56.184;2023-02-18T05:43:59;100412.50;;;-5.36;48.41
61113;BME280;47184;57.998;56.184;2023-02-18T05:46:43;100401.81;;;-4.99;47.94
61113;BME280;47184;57.998;56.184;2023-02-18T05:49:10;100384.31;;;-4.89;47.60
61113;BME280;47184;57.998;56.184;2023-02-18T05:51:36;100393.44;;;-4.80;47.15
61113;BME280;47184;57.998;56.184;2023-02-18T05:54:03;100402.81;;;-4.31;46.89
61113;BME280;47184;57.998;56.184;2023-02-18T05:56:30;100395.44;;;-3.94;46.57
61113;BME280;47184;57.998;56.184;2023-02-18T05:58:56;100382.81;;;-3.80;45.55
61113;BME280;47184;57.998;56.184;2023-02-18T06:01:22;100392.31;;;-3.81;45.38
61113;BME280;47184;57.998;56.184;2023-02-18T06:03:48;100399.81;;;-3.75;45.17
61113;BME280;47184;57.998;56.184;2023-02-18T06:06:17;100369.34;;;-3.87;44.54
61113;BME280;47184;57.998;56.184;2023-02-18T06:08:46;100390.34;;;-3.96;44.61
61113;BME280;47184;57.998;56.184;2023-02-18T06:11:12;100380.78;;;-4.16;43.46
61113;BME280;47184;57.998;56.184;2023-02-18T06:13:38;100392.50;;;-4.07;43.41
61113;BME280;47184;57.998;56.184;2023-02-18T06:16:04;100365.97;;;-3.67;42.95
61113;BME280;47184;57.998;56.184;2023-02-18T06:18:30;100371.56;;;-3.35;42.15
61113;BME280;47184;57.998;56.184;2023-02-18T06:20:56;100384.16;;;-2.47;42.11
61113;BME280;47184;57.998;56.184;2023-02-18T06:23:22;100378.59;;;-1.83;41.44
61113;BME280;47184;57.998;56.184;2023-02-18T06:25:49;100365.38;;;-2.32;40.67
61113;BME280;47184;57.998;56.184;2023-02-18T06:28:16;100363.25;;;-3.01;41.24
61113;BME280;47184;57.998;56.184;2023-02-18T06:30:43;100357.78;;;-3.56;42.19
61113;BME280;47184;57.998;56.184;2023-02-18T06:33:10;100366.28;;;-3.75;42.33
61113;BME280;47184;57.998;56.184;2023-02-18T06:35:36;100345.72;;;-3.98;42.29
61113;BME280;47184;57.998;56.184;2023-02-18T06:38:02;100314.94;;;-4.70;42.79
61113;BME280;47184;57.998;56.184;2023-02-18T06:40:29;100347.81;;;-4.77;43.03
61113;BME280;47184;57.998;56.184;2023-02-18T06:42:55;100336.50;;;-4.72;43.06
61113;BME280;47184;57.998;56.184;2023-02-18T06:45:21;100346.03;;;-4.29;42.52
61113;BME280;47184;57.998;56.184;2023-02-18T06:47:47;100340.47;;;-3.96;42.26
61113;BME280;47184;57.998;56.184;2023-02-18T06:50:16;100344.94;;;-3.58;41.89
61113;BME280;47184;57.998;56.184;2023-02-18T06:52:44;100351.88;;;-2.78;41.55
61113;BME280;47184;57.998;56.184;2023-02-18T06:55:11;100332.06;;;-2.21;41.21
61113;BME280;47184;57.998;56.184;2023-02-18T06:57:38;100346.66;;;-1.65;40.72
61113;BME280;47184;57.998;56.184;2023-02-18T07:00:05;100342.16;;;-1.79;39.96
61113;BME280;47184;57.998;56.184;2023-02-18T07:02:31;100334.34;;;-2.32;39.94
61113;BME280;47184;57.998;56.184;2023-02-18T07:04:58;100334.13;;;-2.28;40.15
61113;BME280;47184;57.998;56.184;2023-02-18T07:07:24;100346.06;;;-1.89;40.56
61113;BME280;47184;57.998;56.184;2023-02-18T07:09:50;100341.38;;;-1.81;40.80
61113;BME280;47184;57.998;56.184;2023-02-18T07:12:16;100311.88;;;-2.32;39.62
61113;BME280;47184;57.998;56.184;2023-02-18T07:14:42;100329.28;;;-2.54;39.91
61113;BME280;47184;57.998;56.184;2023-02-18T07:17:08;100336.66;;;-2.84;40.14
61113;BME280;47184;57.998;56.184;2023-02-18T07:19:35;100317.16;;;-3.31;40.39
61113;BME280;47184;57.998;56.184;2023-02-18T07:22:01;100324.19;;;-3.55;40.69
61113;BME280;47184;57.998;56.184;2023-02-18T07:24:27;100324.44;;;-3.61;40.96
61113;BME280;47184;57.998;56.184;2023-02-18T07:26:53;100316.25;;;-3.70;41.26
61113;BME280;47184;57.998;56.184;2023-02-18T07:29:22;100315.06;;;-3.84;41.14
61113;BME280;47184;57.998;56.184;2023-02-18T07:31:48;100328.66;;;-3.80;41.04
61113;BME280;47184;57.998;56.184;2023-02-18T07:34:14;100317.63;;;-3.84;40.95
61113;BME280;47184;57.998;56.184;2023-02-18T07:36:40;100324.66;;;-3.87;41.09
61113;BME280;47184;57.998;56.184;2023-02-18T07:39:07;100319.31;;;-4.05;41.18
61113;BME280;47184;57.998;56.184;2023-02-18T07:41:33;100328.72;;;-4.26;41.12
61113;BME280;47184;57.998;56.184;2023-02-18T07:43:59;100316.63;;;-4.02;41.16
61113;BME280;47184;57.998;56.184;2023-02-18T07:46:25;100330.41;;;-4.03;40.93
61113;BME280;47184;57.998;56.184;2023-02-18T07:48:51;100323.16;;;-4.15;41.20
61113;BME280;47184;57.998;56.184;2023-02-18T07:51:17;100314.09;;;-4.25;41.06
61113;BME280;47184;57.998;56.184;2023-02-18T07:53:43;100334.94;;;-4.08;40.89
61113;BME280;47184;57.998;56.184;2023-02-18T07:56:09;100318.59;;;-3.86;40.96
61113;BME280;47184;57.998;56.184;2023-02-18T07:58:37;100325.41;;;-3.63;40.69
61113;BME280;47184;57.998;56.184;2023-02-18T08:01:09;100320.34;;;-4.09;40.64
61113;BME280;47184;57.998;56.184;2023-02-18T08:03:35;100317.22;;;-4.17;41.00
61113;BME280;47184;57.998;56.184;2023-02-18T08:06:03;100320.09;;;-4.03;41.02
61113;BME280;47184;57.998;56.184;2023-02-18T08:08:31;100321.94;;;-3.84;41.05
61113;BME280;47184;57.998;56.184;2023-02-18T08:10:59;100316.25;;;-4.14;40.24
61113;BME280;47184;57.998;56.184;2023-02-18T08:13:28;100312.59;;;-4.31;40.84
61113;BME280;47184;57.998;56.184;2023-02-18T08:15:55;100308.53;;;-4.36;41.11
61113;BME280;47184;57.998;56.184;2023-02-18T08:18:22;100297.50;;;-4.40;41.13
61113;BME280;47184;57.998;56.184;2023-02-18T08:20:49;100305.13;;;-4.15;41.03
61113;BME280;47184;57.998;56.184;2023-02-18T08:23:18;100291.63;;;-4.00;40.99
61113;BME280;47184;57.998;56.184;2023-02-18T08:25:46;100301.91;;;-3.78;40.89
61113;BME280;47184;57.998;56.184;2023-02-18T08:28:13;100299.09;;;-3.51;40.73
61113;BME280;47184;57.998;56.184;2023-02-18T08:30:47;100305.13;;;-3.32;40.92
61113;BME280;47184;57.998;56.184;2023-02-18T08:33:14;100298.38;;;-3.14;40.58
61113;BME280;47184;57.998;56.184;2023-02-18T08:35:41;100307.06;;;-3.16;40.40
61113;BME280;47184;57.998;56.184;2023-02-18T08:38:08;100302.50;;;-3.10;40.55
61113;BME280;47184;57.998;56.184;2023-02-18T08:40:34;100302.75;;;-2.77;40.47
61113;BME280;47184;57.998;56.184;2023-02-18T08:43:00;100300.00;;;-2.55;40.34
61113;BME280;47184;57.998;56.184;2023-02-18T08:45:26;100293.09;;;-2.35;40.08
61113;BME280;47184;57.998;56.184;2023-02-18T08:47:52;100290.84;;;-2.24;39.71
61113;BME280;47184;57.998;56.184;2023-02-18T08:50:18;100281.50;;;-2.09;40.17
61113;BME280;47184;57.998;56.184;2023-02-18T08:52:46;100274.31;;;-1.85;40.15
61113;BME280;47184;57.998;56.184;2023-02-18T08:55:12;100278.56;;;-1.50;39.18
61113;BME280;47184;57.998;56.184;2023-02-18T08:57:39;100299.34;;;-1.34;38.73
61113;BME280;47184;57.998;56.184;2023-02-18T09:00:05;100271.75;;;-1.17;38.90
61113;BME280;47184;57.998;56.184;2023-02-18T09:02:31;100274.19;;;-0.65;39.12
61113;BME280;47184;57.998;56.184;2023-02-18T09:04:57;100291.56;;;-0.04;39.22
61113;BME280;47184;57.998;56.184;2023-02-18T09:07:23;100280.00;;;0.62;38.61
61113;BME280;47184;57.998;56.184;2023-02-18T09:09:49;100269.41;;;1.36;38.00
61113;BME280;47184;57.998;56.184;2023-02-18T09:12:15;100264.28;;;2.16;37.34
61113;BME280;47184;57.998;56.184;2023-02-18T09:14:41;100260.09;;;2.53;36.93
61113;BME280;47184;57.998;56.184;2023-02-18T09:17:07;100255.53;;;2.04;36.26
61113;BME280;47184;57.998;56.184;2023-02-18T09:19:33;100251.69;;;1.00;36.91
61113;BME280;47184;57.998;56.184;2023-02-18T09:21:59;100245.25;;;1.06;37.71
61113;BME280;47184;57.998;56.184;2023-02-18T09:24:25;100234.69;;;1.23;37.81
61113;BME280;47184;57.998;56.184;2023-02-18T09:26:52;100247.13;;;1.86;36.99
61113;BME280;47184;57.998;56.184;2023-02-18T09:29:20;100243.41;;;2.43;36.88
61113;BME280;47184;57.998;56.184;2023-02-18T09:31:46;100228.16;;;3.01;36.17
61113;BME280;47184;57.998;56.184;2023-02-18T09:34:12;100240.19;;;3.40;35.31
61113;BME280;47184;57.998;56.184;2023-02-18T09:36:38;100247.16;;;3.76;35.79
61113;BME280;47184;57.998;56.184;2023-02-18T09:39:05;100248.44;;;3.94;35.38
61113;BME280;47184;57.998;56.184;2023-02-18T09:41:47;100244.09;;;3.58;35.04
61113;BME280;47184;57.998;56.184;2023-02-18T09:44:42;100245.09;;;3.44;35.02
61113;BME280;47184;57.998;56.184;2023-02-18T09:47:18;100229.81;;;3.02;34.66
61113;BME280;47184;57.998;56.184;2023-02-18T09:49:53;100227.00;;;3.05;35.00
61113;BME280;47184;57.998;56.184;2023-02-18T09:52:24;100233.84;;;2.82;35.09
61113;BME280;47184;57.998;56.184;2023-02-18T09:54:52;100233.81;;;2.43;35.65
61113;BME280;47184;57.998;56.184;2023-02-18T10:00:00;100239.75;;;1.66;36.23
61113;BME280;47184;57.998;56.184;2023-02-18T10:02:26;100239.44;;;0.88;35.49
61113;BME280;47184;57.998;56.184;2023-02-18T10:04:53;100224.72;;;0.44;35.90
61113;BME280;47184;57.998;56.184;2023-02-18T10:07:26;100239.53;;;0.58;36.58
61113;BME280;47184;57.998;56.184;2023-02-18T10:09:54;100229.31;;;0.55;36.08
61113;BME280;47184;57.998;56.184;2023-02-18T10:12:24;100231.09;;;0.24;36.76
61113;BME280;47184;57.998;56.184;2023-02-18T10:14:53;100235.38;;;-0.05;36.60
61113;BME280;47184;57.998;56.184;2023-02-18T10:17:21;100238.59;;;-0.16;36.90
61113;BME280;47184;57.998;56.184;2023-02-18T10:19:50;100236.19;;;-0.51;36.79
61113;BME280;47184;57.998;56.184;2023-02-18T10:22:18;100232.44;;;-0.45;36.97
61113;BME280;47184;57.998;56.184;2023-02-18T10:24:49;100208.00;;;-0.41;37.32
61113;BME280;47184;57.998;56.184;2023-02-18T10:27:27;100210.75;;;-0.28;37.16
61113;BME280;47184;57.998;56.184;2023-02-18T10:32:43;100224.00;;;-0.64;37.56
61113;BME280;47184;57.998;56.184;2023-02-18T10:35:30;100228.75;;;-0.88;37.72
61113;BME280;47184;57.998;56.184;2023-02-18T10:40:45;100230.84;;;-1.79;38.43
61113;BME280;47184;57.998;56.184;2023-02-18T10:46:33;100228.09;;;-2.10;39.33
61113;BME280;47184;57.998;56.184;2023-02-18T10:51:53;100228.94;;;-2.46;39.49
61113;BME280;47184;57.998;56.184;2023-02-18T10:54:26;100221.03;;;-2.43;39.57
61113;BME280;47184;57.998;56.184;2023-02-18T10:56:58;100224.91;;;-2.52;40.06
61113;BME280;47184;57.998;56.184;2023-02-18T10:59:28;100231.25;;;-2.40;39.74
61113;BME280;47184;57.998;56.184;2023-02-18T11:02:03;100230.81;;;-2.31;39.84
61113;BME280;47184;57.998;56.184;2023-02-18T11:04:39;100217.84;;;-2.48;40.05
61113;BME280;47184;57.998;56.184;2023-02-18T11:07:13;100220.28;;;-2.45;39.94
61113;BME280;47184;57.998;56.184;2023-02-18T11:09:47;100223.50;;;-2.59;40.31
61113;BME280;47184;57.998;56.184;2023-02-18T11:14:47;100204.25;;;-3.08;40.78
61113;BME280;47184;57.998;56.184;2023-02-18T11:17:29;100217.75;;;-3.02;41.05
61113;BME280;47184;57.998;56.184;2023-02-18T11:20:01;100223.38;;;-3.12;41.13
61113;BME280;47184;57.998;56.184;2023-02-18T11:22:34;100224.91;;;-3.66;41.28
61113;BME280;47184;57.998;56.184;2023-02-18T11:25:21;100221.47;;;-4.08;41.83
61113;BME280;47184;57.998;56.184;2023-02-18T11:27:51;100204.94;;;-4.24;42.90
61113;BME280;47184;57.998;56.184;2023-02-18T11:30:30;100222.44;;;-4.32;42.47
61113;BME280;47184;57.998;56.184;2023-02-18T11:35:53;100212.19;;;-4.34;42.73
61113;BME280;47184;57.998;56.184;2023-02-18T11:38:32;100215.59;;;-4.33;42.70
61113;BME280;47184;57.998;56.184;2023-02-18T11:41:07;100218.16;;;-4.11;42.81
61113;BME280;47184;57.998;56.184;2023-02-18T11:43:34;100205.47;;;-3.95;42.68
61113;BME280;47184;57.998;56.184;2023-02-18T11:46:18;100214.78;;;-3.91;42.14
61113;BME280;47184;57.998;56.184;2023-02-18T11:48:45;100197.78;;;-3.77;42.77
61113;BME280;47184;57.998;56.184;2023-02-18T11:53:58;100196.81;;;-3.54;42.77
61113;BME280;47184;57.998;56.184;2023-02-18T11:56:27;100193.78;;;-3.24;42.93
61113;BME280;47184;57.998;56.184;2023-02-18T11:58:54;100175.53;;;-3.40;42.89
61113;BME280;47184;57.998;56.184;2023-02-18T12:01:42;100194.47;;;-3.20;42.65
61113;BME280;47184;57.998;56.184;2023-02-18T12:04:12;100192.81;;;-3.03;42.61
61113;BME280;47184;57.998;56.184;2023-02-18T12:06:45;100178.44;;;-3.08;42.76
61113;BME280;47184;57.998;56.184;2023-02-18T12:11:59;100164.25;;;-2.81;42.54
61113;BME280;47184;57.998;56.184;2023-02-18T12:14:26;100184.47;;;-2.53;42.36
61113;BME280;47184;57.998;56.184;2023-02-18T12:17:02;100192.16;;;-2.70;42.01
61113;BME280;47184;57.998;56.184;2023-02-18T12:39:06;100193.84;;;-4.06;42.45
61113;BME280;47184;57.998;56.184;2023-02-18T12:53:20;100185.03;;;-5.08;43.22
61113;BME280;47184;57.998;56.184;2023-02-18T12:58:43;100189.97;;;-5.26;43.49
61113;BME280;47184;57.998;56.184;2023-02-18T13:07:38;100177.78;;;-5.92;43.63
61113;BME280;47184;57.998;56.184;2023-02-18T13:13:06;100182.84;;;-6.41;44.13
61113;BME280;47184;57.998;56.184;2023-02-18T13:15:43;100190.22;;;-6.58;44.88
61113;BME280;47184;57.998;56.184;2023-02-18T13:21:10;100180.47;;;-7.03;45.65
61113;BME280;47184;57.998;56.184;2023-02-18T13:23:59;100183.94;;;-7.34;47.15
61113;BME280;47184;57.998;56.184;2023-02-18T13:26:30;100176.53;;;-7.44;46.58
61113;BME280;47184;57.998;56.184;2023-02-18T13:34:34;100156.72;;;-7.69;47.19
61113;BME280;47184;57.998;56.184;2023-02-18T13:39:58;100171.31;;;-7.73;46.68
61113;BME280;47184;57.998;56.184;2023-02-18T13:42:33;100171.63;;;-7.83;46.71
61113;BME280;47184;57.998;56.184;2023-02-18T13:45:21;100179.41;;;-7.86;47.61
61113;BME280;47184;57.998;56.184;2023-02-18T13:47:48;100154.16;;;-8.02;47.42
61113;BME280;47184;57.998;56.184;2023-02-18T14:01:00;100178.44;;;-8.15;47.83
61113;BME280;47184;57.998;56.184;2023-02-18T14:03:31;100191.88;;;-8.07;47.81
61113;BME280;47184;57.998;56.184;2023-02-18T14:05:58;100201.41;;;-8.12;47.69
61113;BME280;47184;57.998;56.184;2023-02-18T14:08:34;100200.75;;;-8.20;47.54
61113;BME280;47184;57.998;56.184;2023-02-18T14:16:25;100197.31;;;-8.19;48.24
61113;BME280;47184;57.998;56.184;2023-02-18T14:18:58;100185.41;;;-8.20;47.97
61113;BME280;47184;57.998;56.184;2023-02-18T14:21:36;100196.09;;;-8.04;47.21
61113;BME280;47184;57.998;56.184;2023-02-18T14:24:05;100200.34;;;-8.05;47.62
61113;BME280;47184;57.998;56.184;2023-02-18T14:26:36;100201.19;;;-8.03;47.27
61113;BME280;47184;57.998;56.184;2023-02-18T14:29:33;100200.25;;;-8.00;47.83
61113;BME280;47184;57.998;56.184;2023-02-18T14:32:01;100207.00;;;-7.96;46.85
61113;BME280;47184;57.998;56.184;2023-02-18T14:35:12;100208.81;;;-8.01;47.85
61113;BME280;47184;57.998;56.184;2023-02-18T14:43:09;100197.78;;;-8.05;48.28
61113;BME280;47184;57.998;56.184;2023-02-18T14:46:09;100192.41;;;-7.94;48.10
61113;BME280;47184;57.998;56.184;2023-02-18T14:51:06;100184.38;;;-8.14;48.28
61113;BME280;47184;57.998;56.184;2023-02-18T14:53:39;100198.09;;;-8.17;48.79
61113;BME280;47184;57.998;56.184;2023-02-18T14:56:13;100199.19;;;-8.26;48.81
61113;BME280;47184;57.998;56.184;2023-02-18T14:58:49;100187.59;;;-8.39;48.88
61113;BME280;47184;57.998;56.184;2023-02-18T15:01:23;100201.53;;;-8.16;49.03
61113;BME280;47184;57.998;56.184;2023-02-18T15:03:51;100202.78;;;-7.99;48.39
61113;BME280;47184;57.998;56.184;2023-02-18T15:06:33;100204.44;;;-7.98;48.49
61113;BME280;47184;57.998;56.184;2023-02-18T15:09:11;100205.03;;;-7.86;47.88
61113;BME280;47184;57.998;56.184;2023-02-18T15:11:49;100205.72;;;-7.80;48.32